Rittushinmaru — JD4016 — position and weather

sailwx.info

Track history (hours):
 
Tides and Currents Weather Stations Pressure Air Temp Water Temp Dewpoint Dewpoint Depression Visibility Wind Speed Wind Dir Waves Ship Positions

Rittushinmaru

Last reported at 2017-Nov-06 02:31 UTC. Time now 2017-Nov-21 19:01 UTC.
Position N 35°28' E 139°42'.
Warning: this ship's position is 15 days out of date.

Length 72 m; draft 3.5 m.

Type: Cargo ship. MMSI: 431007878.

Date/timePositionNaut miles runAvg speedWind from/ knotsBaromVisibWave heightAir tempDewpointWater temp
2017-Nov-06 02:31N 35°28' E 139°42'0 0.0
2017-Nov-06 02:00N 35°28' E 139°42'0 0.0
2017-Nov-06 01:30N 35°28' E 139°42'0 0.0
2017-Nov-06 01:01N 35°28' E 139°42'0 0.0
2017-Nov-06 00:31N 35°28' E 139°42'0 0.0
2017-Nov-06 00:00N 35°28' E 139°42'0 0.0
2017-Nov-05 23:30N 35°28' E 139°42'0 0.0
2017-Nov-05 23:00N 35°28' E 139°42'0 0.0
2017-Nov-05 22:30N 35°28' E 139°42'0 0.0
2017-Nov-05 22:01N 35°28' E 139°42'0 0.0
2017-Nov-05 21:31N 35°28' E 139°42'0 0.0
2017-Nov-05 21:01N 35°28' E 139°42'0 0.0
2017-Nov-05 20:30N 35°28' E 139°42'0 0.0
2017-Nov-05 20:00N 35°28' E 139°42'0 0.0
2017-Nov-05 19:31N 35°28' E 139°42'0 0.0
2017-Nov-05 19:01N 35°28' E 139°42'0 0.0
2017-Nov-05 18:30N 35°28' E 139°42'0 0.0
2017-Nov-05 18:00N 35°28' E 139°42'0 0.0
2017-Nov-05 17:31N 35°28' E 139°42'0 0.0
2017-Nov-05 17:00N 35°28' E 139°42'0 0.0
2017-Nov-05 16:30N 35°28' E 139°42'0 0.0
2017-Nov-05 16:01N 35°28' E 139°42'0 0.0
2017-Nov-05 15:31N 35°28' E 139°42'0 0.0
2017-Nov-05 15:01N 35°28' E 139°42'0 0.0
2017-Nov-05 14:30N 35°28' E 139°42'0 0.0
2017-Nov-05 14:01N 35°28' E 139°42'0 0.0
2017-Nov-05 13:31N 35°28' E 139°42'0 0.0
2017-Nov-05 13:01N 35°28' E 139°42'0 0.0
2017-Nov-05 12:31N 35°28' E 139°42'0 0.2
2017-Nov-05 12:01N 35°28' E 139°42'1 3.0
2017-Nov-05 11:31N 35°27' E 139°42'0 0.0
2017-Nov-05 11:00N 35°27' E 139°42'0 0.0
2017-Nov-05 10:30N 35°27' E 139°42'0 0.0
2017-Nov-05 10:01N 35°27' E 139°42'0 0.0
2017-Nov-05 09:31N 35°27' E 139°42'0 0.1
2017-Nov-05 09:01N 35°27' E 139°42'0 0.0
2017-Nov-05 08:31N 35°27' E 139°42'0 0.1
2017-Nov-05 08:01N 35°27' E 139°42'0 0.0
2017-Nov-05 07:30N 35°27' E 139°42'0 0.0
2017-Nov-05 07:00N 35°27' E 139°42'0 0.0
2017-Nov-05 06:31N 35°27' E 139°42'0 0.0
2017-Nov-05 06:01N 35°27' E 139°42'0 0.0
2017-Nov-05 05:30N 35°27' E 139°42'0 0.0
2017-Nov-05 05:00N 35°27' E 139°42'0 0.0
2017-Nov-05 04:30N 35°27' E 139°42'0 0.2
2017-Nov-05 04:01N 35°27' E 139°42'611.1
2017-Nov-05 03:28N 35°29' E 139°49'6 0.2
2017-Nov-03 21:51N 35°31' E 139°57'410.2
2017-Nov-03 21:30N 35°29' E 139°53'510.4
2017-Nov-03 21:00N 35°26' E 139°48'5 9.8
2017-Nov-03 20:30N 35°21' E 139°45'4 8.9
2017-Nov-03 20:01N 35°17' E 139°46'510.0
2017-Nov-03 19:30N 35°12' E 139°47'510.8
2017-Nov-03 19:00N 35°07' E 139°45'611.2
2017-Nov-03 18:30N 35°03' E 139°40'611.7
2017-Nov-03 17:59N 34°59' E 139°35'  
2017-Nov-01 01:51N 34°37' E 135°26'0 0.0
2017-Nov-01 01:22N 34°37' E 135°26'0 0.0
2017-Oct-31 23:52N 34°37' E 135°26'0 0.0
2017-Oct-31 23:14N 34°37' E 135°26'0 0.0
2017-Oct-31 22:52N 34°37' E 135°26'0 0.1
2017-Oct-31 22:30N 34°37' E 135°26'2 4.6
2017-Oct-31 22:00N 34°37' E 135°23'0 0.1
2017-Oct-31 21:30N 34°37' E 135°23'0 0.0
2017-Oct-31 21:00N 34°37' E 135°23'0 0.0
2017-Oct-31 20:30N 34°37' E 135°23'0 0.0
2017-Oct-31 20:01N 34°37' E 135°23'0 0.0
2017-Oct-31 19:30N 34°37' E 135°23'0 0.0
2017-Oct-31 19:00N 34°37' E 135°23'0 0.0
2017-Oct-31 18:31N 34°37' E 135°23'0 0.0
2017-Oct-31 18:00N 34°37' E 135°23'0 0.0
2017-Oct-31 17:30N 34°37' E 135°23'2 3.2
2017-Oct-31 17:01N 34°36' E 135°22'510.6
2017-Oct-31 16:30N 34°32' E 135°17'510.2
2017-Oct-31 16:00N 34°29' E 135°13'510.1
2017-Oct-31 15:30N 34°25' E 135°09'610.1
2017-Oct-31 14:57N 34°21' E 135°04'7 8.6
2017-Oct-31 14:05N 34°14' E 134°60'4 9.9
2017-Oct-31 13:40N 34°10' E 135°00'210.2
2017-Oct-31 13:30N 34°09' E 135°00'610.3
2017-Oct-31 12:58N 34°03' E 135°01'  
Track history (hours):
 
Tides and Currents Weather Stations Pressure Air Temp Water Temp Dewpoint Dewpoint Depression Visibility Wind Speed Wind Dir Waves Ship Positions

Rittushinmaru

Last reported at 2017-Nov-06 02:31 UTC. Time now 2017-Nov-21 19:01 UTC.
Position N 35°28' E 139°42'.
Warning: this ship's position is 15 days out of date.

Length 72 m; draft 3.5 m.

Type: Cargo ship. MMSI: 431007878.

Date/timePositionNaut miles runAvg speedWind from/ knotsBaromVisibWave heightAir tempDewpointWater temp
2017-Nov-06 02:31N 35°28' E 139°42'0 0.0
2017-Nov-06 02:00N 35°28' E 139°42'0 0.0
2017-Nov-06 01:30N 35°28' E 139°42'0 0.0
2017-Nov-06 01:01N 35°28' E 139°42'0 0.0
2017-Nov-06 00:31N 35°28' E 139°42'0 0.0
2017-Nov-06 00:00N 35°28' E 139°42'0 0.0
2017-Nov-05 23:30N 35°28' E 139°42'0 0.0
2017-Nov-05 23:00N 35°28' E 139°42'0 0.0
2017-Nov-05 22:30N 35°28' E 139°42'0 0.0
2017-Nov-05 22:01N 35°28' E 139°42'0 0.0
2017-Nov-05 21:31N 35°28' E 139°42'0 0.0
2017-Nov-05 21:01N 35°28' E 139°42'0 0.0
2017-Nov-05 20:30N 35°28' E 139°42'0 0.0
2017-Nov-05 20:00N 35°28' E 139°42'0 0.0
2017-Nov-05 19:31N 35°28' E 139°42'0 0.0
2017-Nov-05 19:01N 35°28' E 139°42'0 0.0
2017-Nov-05 18:30N 35°28' E 139°42'0 0.0
2017-Nov-05 18:00N 35°28' E 139°42'0 0.0
2017-Nov-05 17:31N 35°28' E 139°42'0 0.0
2017-Nov-05 17:00N 35°28' E 139°42'0 0.0
2017-Nov-05 16:30N 35°28' E 139°42'0 0.0
2017-Nov-05 16:01N 35°28' E 139°42'0 0.0
2017-Nov-05 15:31N 35°28' E 139°42'0 0.0
2017-Nov-05 15:01N 35°28' E 139°42'0 0.0
2017-Nov-05 14:30N 35°28' E 139°42'0 0.0
2017-Nov-05 14:01N 35°28' E 139°42'0 0.0
2017-Nov-05 13:31N 35°28' E 139°42'0 0.0
2017-Nov-05 13:01N 35°28' E 139°42'0 0.0
2017-Nov-05 12:31N 35°28' E 139°42'0 0.2
2017-Nov-05 12:01N 35°28' E 139°42'1 3.0
2017-Nov-05 11:31N 35°27' E 139°42'0 0.0
2017-Nov-05 11:00N 35°27' E 139°42'0 0.0
2017-Nov-05 10:30N 35°27' E 139°42'0 0.0
2017-Nov-05 10:01N 35°27' E 139°42'0 0.0
2017-Nov-05 09:31N 35°27' E 139°42'0 0.1
2017-Nov-05 09:01N 35°27' E 139°42'0 0.0
2017-Nov-05 08:31N 35°27' E 139°42'0 0.1
2017-Nov-05 08:01N 35°27' E 139°42'0 0.0
2017-Nov-05 07:30N 35°27' E 139°42'0 0.0
2017-Nov-05 07:00N 35°27' E 139°42'0 0.0
2017-Nov-05 06:31N 35°27' E 139°42'0 0.0
2017-Nov-05 06:01N 35°27' E 139°42'0 0.0
2017-Nov-05 05:30N 35°27' E 139°42'0 0.0
2017-Nov-05 05:00N 35°27' E 139°42'0 0.0
2017-Nov-05 04:30N 35°27' E 139°42'0 0.2
2017-Nov-05 04:01N 35°27' E 139°42'611.1
2017-Nov-05 03:28N 35°29' E 139°49'6 0.2
2017-Nov-03 21:51N 35°31' E 139°57'410.2
2017-Nov-03 21:30N 35°29' E 139°53'510.4
2017-Nov-03 21:00N 35°26' E 139°48'5 9.8
2017-Nov-03 20:30N 35°21' E 139°45'4 8.9
2017-Nov-03 20:01N 35°17' E 139°46'510.0
2017-Nov-03 19:30N 35°12' E 139°47'510.8
2017-Nov-03 19:00N 35°07' E 139°45'611.2
2017-Nov-03 18:30N 35°03' E 139°40'611.7
2017-Nov-03 17:59N 34°59' E 139°35'  
2017-Nov-01 01:51N 34°37' E 135°26'0 0.0
2017-Nov-01 01:22N 34°37' E 135°26'0 0.0
2017-Oct-31 23:52N 34°37' E 135°26'0 0.0
2017-Oct-31 23:14N 34°37' E 135°26'0 0.0
2017-Oct-31 22:52N 34°37' E 135°26'0 0.1
2017-Oct-31 22:30N 34°37' E 135°26'2 4.6
2017-Oct-31 22:00N 34°37' E 135°23'0 0.1
2017-Oct-31 21:30N 34°37' E 135°23'0 0.0
2017-Oct-31 21:00N 34°37' E 135°23'0 0.0
2017-Oct-31 20:30N 34°37' E 135°23'0 0.0
2017-Oct-31 20:01N 34°37' E 135°23'0 0.0
2017-Oct-31 19:30N 34°37' E 135°23'0 0.0
2017-Oct-31 19:00N 34°37' E 135°23'0 0.0
2017-Oct-31 18:31N 34°37' E 135°23'0 0.0
2017-Oct-31 18:00N 34°37' E 135°23'0 0.0
2017-Oct-31 17:30N 34°37' E 135°23'2 3.2
2017-Oct-31 17:01N 34°36' E 135°22'510.6
2017-Oct-31 16:30N 34°32' E 135°17'510.2
2017-Oct-31 16:00N 34°29' E 135°13'510.1
2017-Oct-31 15:30N 34°25' E 135°09'610.1
2017-Oct-31 14:57N 34°21' E 135°04'7 8.6
2017-Oct-31 14:05N 34°14' E 134°60'4 9.9
2017-Oct-31 13:40N 34°10' E 135°00'210.2
2017-Oct-31 13:30N 34°09' E 135°00'610.3
2017-Oct-31 12:58N 34°03' E 135°01'  

Dump ship's entire track history